Terminal Aerodrome Forecast
Issued by NWS Knoxville/Tri Cities, TN

Home | Current Version | Previous Version | Text Only | Print | Product List | Glossary On
Versions: 1 2 3 4 5 6 7 8 9 10 11 12 13 14 15 16 17 18 19 20 21 22 23 24 25 26 27 28 29 30 31 32 33 34 35 36 37 38 39 40 41 42 43 44 45 46 47 48 49 50
000
FTUS44 KMRX 231423 AAB
TAFCHA
TAF AMD
KCHA 231423Z 2314/2412 00000KT 1SM BR BKN002
      TEMPO 2314/2315 3SM BR BKN010
     FM231500 17004KT P6SM BKN015
     FM231800 18005KT P6SM BKN050
     FM240000 17004KT P6SM BKN250
     FM240900 17003KT P6SM OVC050=

USA.gov is the U.S. government's official web portal to all federal, state and local government web resources and services.